Time;durP1;ratioP1;P1;durP2;ratioP2;P2;SDS_P1;SDS_P2;PMS_P1;PMS_P2;Temp;Humidity;BMP_temperature;BMP_pressure;BME280_temperature;BME280_humidity;BME280_pressure;Samples;Min_cycle;Max_cycle;Signal;HPM_P1;HPM_P2
2024/02/22 00:00:49;;;;;;;1.40;1.30;;;;;;;10.46;77.32;97895.59;5157949;27;43197;-82
2024/02/22 00:03:16;;;;;;;1.70;1.10;;;;;;;10.27;78.69;97886.41;5157821;27;42656;-83
2024/02/22 00:05:44;;;;;;;2.13;1.20;;;;;;;10.12;80.69;97871.69;5175432;27;38634;-83
2024/02/22 00:08:12;;;;;;;1.37;1.27;;;;;;;10.21;82.65;97880.75;5174703;27;40926;-82
2024/02/22 00:10:41;;;;;;;1.23;0.93;;;;;;;10.17;83.12;97885.41;5174234;27;43717;-85
2024/02/22 00:13:09;;;;;;;1.57;1.27;;;;;;;10.18;83.83;97881.81;5174675;27;42377;-84
2024/02/22 00:15:38;;;;;;;1.33;1.10;;;;;;;10.00;86.77;97869.97;5173256;27;39379;-83
2024/02/22 00:18:06;;;;;;;2.53;1.00;;;;;;;10.12;87.05;97902.59;5173491;27;41841;-87
2024/02/22 00:20:33;;;;;;;1.30;1.17;;;;;;;10.09;86.88;97890.44;5173695;27;42748;-85
2024/02/22 00:23:02;;;;;;;1.83;1.30;;;;;;;9.99;87.53;97886.81;5173606;27;42987;-81
2024/02/22 00:25:30;;;;;;;1.93;1.50;;;;;;;10.05;89.47;97899.56;5174498;27;40639;-85
2024/02/22 00:27:57;;;;;;;1.83;1.60;;;;;;;9.70;89.56;97850.16;5174715;27;41697;-91
2024/02/22 00:30:26;;;;;;;2.37;1.53;;;;;;;9.87;90.27;97878.00;5156321;27;41743;-82
2024/02/22 00:32:54;;;;;;;1.37;1.20;;;;;;;9.77;90.83;97855.00;5156132;27;42630;-85
2024/02/22 00:35:22;;;;;;;1.50;1.40;;;;;;;10.03;90.40;97882.94;5156052;27;39296;-83
2024/02/22 00:37:50;;;;;;;1.60;1.10;;;;;;;9.95;91.50;97869.47;5156828;27;40700;-82
2024/02/22 00:40:18;;;;;;;2.43;1.20;;;;;;;10.06;90.66;97870.34;5157092;27;42091;-82
2024/02/22 00:42:45;;;;;;;2.93;1.33;;;;;;;10.04;92.00;97866.97;5175867;27;42263;-87
2024/02/22 00:45:14;;;;;;;2.57;1.50;;;;;;;9.90;93.29;97842.53;5157914;27;40172;-80
2024/02/22 00:47:41;;;;;;;1.67;1.37;;;;;;;9.99;93.07;97855.06;5177797;27;41809;-81
2024/02/22 00:50:11;;;;;;;2.50;1.50;;;;;;;9.98;93.88;97848.09;5176864;27;41921;-84
2024/02/22 00:52:38;;;;;;;1.93;1.40;;;;;;;9.75;95.08;97825.19;5176243;27;42211;-85
2024/02/22 00:55:07;;;;;;;2.97;1.60;;;;;;;9.78;95.74;97830.22;5155910;27;38842;-83
2024/02/22 00:57:34;;;;;;;2.37;1.83;;;;;;;9.82;97.83;97840.47;5172838;27;40527;-83
2024/02/22 01:00:02;;;;;;;2.07;1.47;;;;;;;9.80;97.54;97836.25;5174899;27;43209;-82
2024/02/22 01:02:30;;;;;;;6.03;1.60;;;;;;;9.86;97.57;97834.00;5156902;27;40807;-83
2024/02/22 01:04:57;;;;;;;1.47;1.37;;;;;;;9.83;98.77;97820.16;5156560;27;38479;-81
2024/02/22 01:07:26;;;;;;;2.17;1.50;;;;;;;9.87;97.05;97819.81;5156192;27;40742;-88
2024/02/22 01:09:53;;;;;;;1.50;1.23;;;;;;;9.89;97.66;97802.00;5156500;27;41783;-83
2024/02/22 01:12:21;;;;;;;1.83;1.40;;;;;;;9.83;97.77;97806.94;5175082;27;42452;-81
2024/02/22 01:14:49;;;;;;;1.57;1.40;;;;;;;9.80;98.47;97793.94;5174446;27;38712;-81
2024/02/22 01:17:16;;;;;;;2.63;1.67;;;;;;;9.84;98.77;97787.47;5174921;27;41551;-81
2024/02/22 01:19:45;;;;;;;2.03;1.70;;;;;;;9.77;97.72;97778.34;5173734;27;42824;-81
2024/02/22 01:22:13;;;;;;;1.60;1.50;;;;;;;9.83;98.51;97776.06;5157014;27;42169;-81
2024/02/22 01:24:42;;;;;;;4.60;1.63;;;;;;;9.75;98.39;97765.25;5176764;27;38654;-82
2024/02/22 01:27:09;;;;;;;1.60;1.50;;;;;;;9.79;100.00;97773.75;5176366;27;41580;-87
2024/02/22 01:29:37;;;;;;;1.43;1.27;;;;;;;9.71;99.01;97751.41;5159064;27;41815;-84
2024/02/22 01:32:05;;;;;;;2.60;1.50;;;;;;;9.68;98.91;97746.34;5177695;27;42030;-81
2024/02/22 01:34:33;;;;;;;3.03;1.57;;;;;;;9.82;99.21;97760.31;5176343;27;39978;-87
2024/02/22 01:37:00;;;;;;;1.20;1.10;;;;;;;9.85;98.90;97755.63;5177430;27;41846;-82
2024/02/22 01:39:28;;;;;;;1.20;1.10;;;;;;;9.86;99.89;97754.69;5158163;27;42068;-83
2024/02/22 01:41:57;;;;;;;2.93;1.50;;;;;;;9.75;99.85;97727.38;5176077;27;41265;-82
2024/02/22 01:44:28;;;;;;;2.23;1.23;;;;;;;9.85;99.98;97736.28;5176408;27;39781;-81
2024/02/22 01:46:56;;;;;;;2.17;1.47;;;;;;;9.63;100.00;97700.94;5159270;27;40508;-86
2024/02/22 01:49:24;;;;;;;3.03;1.77;;;;;;;9.73;100.00;97715.13;5176263;27;42701;-86
2024/02/22 01:51:58;;;;;;;1.63;1.37;;;;;;;9.77;100.00;97709.59;5158575;27;40925;-83
2024/02/22 01:54:26;;;;;;;2.53;1.40;;;;;;;9.75;100.00;97708.88;5159159;27;38956;-81
2024/02/22 01:56:55;;;;;;;3.50;1.40;;;;;;;9.72;100.00;97699.38;5158457;27;41392;-80
2024/02/22 01:59:24;;;;;;;1.90;1.50;;;;;;;9.73;100.00;97690.50;5177257;27;42458;-82
2024/02/22 02:01:52;;;;;;;1.90;1.40;;;;;;;9.85;100.00;97710.69;5177036;27;41334;-82
2024/02/22 02:04:20;;;;;;;1.40;1.30;;;;;;;9.84;100.00;97692.28;5177267;27;39887;-82
2024/02/22 02:06:47;;;;;;;2.63;1.50;;;;;;;9.87;100.00;97692.06;5159625;27;41793;-85
2024/02/22 02:09:16;;;;;;;2.70;1.87;;;;;;;9.81;100.00;97677.50;5176778;27;43407;-81
2024/02/22 02:11:44;;;;;;;2.97;1.73;;;;;;;9.88;100.00;97688.47;5176973;27;41156;-80
2024/02/22 02:14:12;;;;;;;1.70;1.23;;;;;;;9.80;100.00;97664.41;5176922;27;41270;-84
2024/02/22 02:16:41;;;;;;;4.07;1.57;;;;;;;9.88;100.00;97672.59;5176956;27;41788;-82
2024/02/22 02:19:11;;;;;;;1.43;1.33;;;;;;;9.72;100.00;97642.06;5177584;27;42699;-81
2024/02/22 02:21:46;;;;;;;1.97;1.67;;;;;;;9.89;100.00;97659.22;5176544;27;43446;-83
2024/02/22 02:24:29;;;;;;;2.53;1.20;;;;;;;9.91;100.00;97659.09;5174647;27;40841;-85
2024/02/22 02:26:59;;;;;;;1.50;1.40;;;;;;;9.90;100.00;97650.31;5158332;27;41862;-83
2024/02/22 02:29:27;;;;;;;1.53;1.30;;;;;;;9.79;100.00;97630.97;5157986;27;42144;-81
2024/02/22 02:31:54;;;;;;;4.77;1.60;;;;;;;9.87;100.00;97633.88;5175439;27;42129;-83
2024/02/22 02:34:21;;;;;;;2.67;1.63;;;;;;;9.73;100.00;97612.03;5175407;27;39866;-84
2024/02/22 02:36:49;;;;;;;1.50;1.40;;;;;;;9.85;100.00;97630.53;5175315;27;41407;-84
2024/02/22 02:39:17;;;;;;;1.33;1.23;;;;;;;9.85;100.00;97617.28;5177802;27;41917;-79
2024/02/22 02:41:44;;;;;;;1.23;1.13;;;;;;;9.88;100.00;97627.63;5186663;27;41026;-88
2024/02/22 02:44:13;;;;;;;1.80;1.47;;;;;;;9.90;100.00;97620.41;5175501;27;39982;-81
2024/02/22 02:46:41;;;;;;;3.03;1.40;;;;;;;9.88;100.00;97614.41;5175344;27;42727;-81
2024/02/22 02:49:08;;;;;;;1.80;1.17;;;;;;;9.89;100.00;97601.03;5157506;27;42789;-84
2024/02/22 02:51:36;;;;;;;2.70;1.47;;;;;;;9.87;100.00;97592.44;5174962;27;41219;-84
2024/02/22 02:54:03;;;;;;;2.20;1.30;;;;;;;9.81;100.00;97570.91;5175278;27;38778;-81
2024/02/22 02:56:31;;;;;;;1.37;1.27;;;;;;;9.91;100.00;97587.72;5175062;27;41874;-80
2024/02/22 02:58:59;;;;;;;1.40;1.30;;;;;;;9.94;100.00;97588.31;5175365;27;42681;-81
2024/02/22 03:01:28;;;;;;;2.97;1.37;;;;;;;9.85;100.00;97573.19;5158457;27;43509;-81
2024/02/22 03:03:55;;;;;;;1.37;1.27;;;;;;;9.82;100.00;97573.44;5176433;27;38949;-83
2024/02/22 03:06:22;;;;;;;1.40;1.20;;;;;;;9.91;100.00;97582.41;5175929;27;41581;-80
2024/02/22 03:08:50;;;;;;;3.63;1.60;;;;;;;9.91;100.00;97566.56;5175776;27;44369;-83
2024/02/22 03:11:17;;;;;;;2.07;1.17;;;;;;;9.93;100.00;97564.63;5175543;27;43793;-84
2024/02/22 03:13:45;;;;;;;1.43;1.33;;;;;;;9.93;100.00;97562.00;5157971;27;39057;-82
2024/02/22 03:16:12;;;;;;;1.03;0.93;;;;;;;9.80;100.00;97545.44;5175280;27;42675;-80
2024/02/22 03:18:42;;;;;;;1.20;1.10;;;;;;;9.93;100.00;97556.69;5157209;27;41999;-80
2024/02/22 03:21:10;;;;;;;1.40;1.30;;;;;;;9.85;100.00;97538.81;5174648;27;43047;-83
2024/02/22 10:30:13;;;;;;;0.80;0.70;;;;;;;10.18;100.00;97039.75;5112845;28;20572;-83
2024/02/22 10:32:44;;;;;;;0.93;0.83;;;;;;;10.66;100.00;97010.66;5107516;28;39945;-83
2024/02/22 10:35:13;;;;;;;1.03;0.70;;;;;;;11.24;100.00;97013.19;5090750;28;40380;-84
2024/02/22 10:37:42;;;;;;;0.63;0.63;;;;;;;11.71;100.00;97006.81;5107432;28;43164;-89
2024/02/22 10:40:11;;;;;;;0.60;0.60;;;;;;;12.19;100.00;97021.63;5090673;28;40569;-85
2024/02/22 10:42:39;;;;;;;1.13;0.80;;;;;;;12.53;100.00;97006.69;5090369;28;39170;-83
2024/02/22 10:45:08;;;;;;;1.00;0.80;;;;;;;12.81;100.00;97006.56;5091134;28;42045;-84
2024/02/22 10:47:38;;;;;;;0.73;0.73;;;;;;;13.04;100.00;96997.09;5107563;28;42798;-88
2024/02/22 10:50:06;;;;;;;0.67;0.60;;;;;;;13.18;100.00;97007.19;5124382;27;42275;-82
2024/02/22 10:52:40;;;;;;;0.73;0.70;;;;;;;13.20;100.00;96980.44;5101999;28;40076;-83
2024/02/22 10:55:13;;;;;;;1.27;0.90;;;;;;;13.46;100.00;97007.00;5105352;28;43278;-84
2024/02/22 10:57:44;;;;;;;0.80;0.80;;;;;;;13.41;100.00;96991.53;5124641;27;43665;-86
2024/02/22 11:00:14;;;;;;;1.33;0.60;;;;;;;13.46;100.00;96988.41;5091125;28;41137;-84
2024/02/22 11:02:44;;;;;;;0.60;0.60;;;;;;;13.54;100.00;96985.75;5125375;27;39079;-87
2024/02/22 11:05:13;;;;;;;0.73;0.73;;;;;;;13.73;100.00;96993.47;5091658;28;40588;-87
2024/02/22 11:07:45;;;;;;;1.13;0.90;;;;;;;13.70;100.00;96972.53;5125317;27;43844;-88
2024/02/22 11:10:13;;;;;;;0.77;0.77;;;;;;;13.88;100.00;96972.41;5091716;28;42516;-84
2024/02/22 11:12:44;;;;;;;0.70;0.70;;;;;;;13.97;100.00;96974.91;5108437;28;39862;-81
2024/02/22 11:15:13;;;;;;;1.00;0.80;;;;;;;13.91;100.00;96966.75;5125220;27;41888;-86
2024/02/22 11:17:53;;;;;;;0.80;0.70;;;;;;;13.94;100.00;96958.47;5124853;27;41902;-83
2024/02/22 11:20:31;;;;;;;0.60;0.60;;;;;;;13.82;100.00;96930.50;5104749;28;42509;-85
2024/02/22 11:22:58;;;;;;;0.87;0.63;;;;;;;13.92;100.00;96940.00;5103422;28;40021;-84
2024/02/22 11:25:26;;;;;;;0.50;0.50;;;;;;;13.90;100.00;96926.00;5106904;28;41528;-82
2024/02/22 11:28:01;;;;;;;0.60;0.60;;;;;;;13.80;100.00;96925.34;5107094;28;42880;-83
2024/02/22 11:30:29;;;;;;;0.70;0.70;;;;;;;13.78;100.00;96910.53;5089796;28;40945;-85
2024/02/22 11:33:00;;;;;;;0.60;0.60;;;;;;;13.81;100.00;96904.88;5106674;28;39093;-82
2024/02/22 11:35:28;;;;;;;0.53;0.50;;;;;;;13.94;100.00;96910.56;5089473;28;41046;-85
2024/02/22 11:37:59;;;;;;;0.63;0.63;;;;;;;13.88;100.00;96895.25;5106205;28;43816;-84
2024/02/22 11:40:30;;;;;;;0.50;0.50;;;;;;;14.01;100.00;96911.56;5081361;28;42286;-83
2024/02/22 11:42:58;;;;;;;0.50;0.40;;;;;;;14.00;100.00;96892.09;5109682;28;39511;-85
2024/02/22 11:45:27;;;;;;;0.50;0.50;;;;;;;14.05;99.08;96896.09;5076098;28;40843;-85
2024/02/22 11:47:54;;;;;;;0.60;0.50;;;;;;;14.11;99.19;96893.59;5109395;28;41565;-86
2024/02/22 11:50:23;;;;;;;0.67;0.60;;;;;;;14.07;99.37;96880.81;5092858;28;41207;-87
2024/02/22 11:52:51;;;;;;;0.40;0.40;;;;;;;14.16;99.23;96870.00;5075557;28;40171;-85
2024/02/22 11:55:19;;;;;;;1.20;0.50;;;;;;;14.13;97.75;96845.53;5092670;28;41992;-85
2024/02/22 11:57:47;;;;;;;0.50;0.50;;;;;;;14.20;97.38;96843.88;5075391;28;42553;-85
2024/02/22 12:00:15;;;;;;;1.33;0.50;;;;;;;14.18;96.93;96840.53;5093491;28;42454;-86
2024/02/22 12:02:43;;;;;;;0.30;0.30;;;;;;;14.23;96.23;96860.31;5076219;28;40143;-82
2024/02/22 12:05:13;;;;;;;0.40;0.40;;;;;;;14.15;96.70;96844.38;5076811;28;40960;-87
2024/02/22 12:07:42;;;;;;;0.33;0.33;;;;;;;14.05;97.23;96818.94;5076427;28;42082;-84
2024/02/22 12:10:11;;;;;;;0.87;0.50;;;;;;;13.98;97.40;96806.28;5076689;28;42114;-85
2024/02/22 12:12:39;;;;;;;0.40;0.40;;;;;;;14.00;96.97;96809.59;5076785;28;40077;-85
2024/02/22 12:15:09;;;;;;;0.93;0.50;;;;;;;13.98;96.89;96798.28;5093571;28;41545;-84
2024/02/22 12:17:37;;;;;;;0.53;0.40;;;;;;;13.82;97.43;96766.38;5074900;28;41999;-83
2024/02/22 12:20:06;;;;;;;0.40;0.40;;;;;;;13.86;97.57;96765.03;5075089;28;42374;-83
2024/02/22 12:22:34;;;;;;;0.37;0.37;;;;;;;14.01;97.36;96767.84;5075050;28;38984;-83
2024/02/22 12:25:04;;;;;;;0.50;0.50;;;;;;;14.11;97.03;96770.34;5075147;28;42176;-85
2024/02/22 12:27:32;;;;;;;0.50;0.50;;;;;;;13.99;95.63;96748.56;5074798;28;41947;-85
2024/02/22 12:30:01;;;;;;;0.57;0.57;;;;;;;13.97;95.54;96745.25;5074822;28;41387;-82
2024/02/22 12:32:28;;;;;;;0.40;0.40;;;;;;;13.92;95.64;96737.78;5075245;28;39219;-83
2024/02/22 12:34:57;;;;;;;0.50;0.33;;;;;;;13.92;94.85;96753.75;5075203;28;41717;-88
2024/02/22 12:37:26;;;;;;;1.67;0.50;;;;;;;13.93;95.28;96741.28;5075047;28;42178;-83
2024/02/22 12:39:54;;;;;;;0.30;0.30;;;;;;;13.91;94.67;96735.28;5074897;28;41199;-83
2024/02/22 12:42:23;;;;;;;0.43;0.40;;;;;;;13.84;94.95;96728.97;5091830;28;40006;-83
2024/02/22 12:44:51;;;;;;;0.87;0.40;;;;;;;13.97;94.91;96751.38;5074527;28;41756;-86
2024/02/22 12:47:18;;;;;;;0.50;0.40;;;;;;;13.96;94.98;96744.44;5108762;28;42984;-85
2024/02/22 12:49:46;;;;;;;0.83;0.60;;;;;;;13.88;94.36;96711.66;5074297;28;41088;-85
2024/02/22 12:52:14;;;;;;;0.57;0.50;;;;;;;13.93;94.36;96718.16;5090996;28;39730;-82
2024/02/22 12:54:41;;;;;;;0.30;0.30;;;;;;;13.95;94.01;96700.19;5074427;28;40890;-82
2024/02/22 12:57:09;;;;;;;0.40;0.40;;;;;;;14.03;93.65;96713.47;5091124;28;41719;-87
2024/02/22 12:59:38;;;;;;;0.40;0.30;;;;;;;13.91;93.92;96719.31;5108547;28;42960;-85
2024/02/22 13:02:05;;;;;;;0.30;0.30;;;;;;;13.74;95.20;96697.22;5075815;28;38504;-82
2024/02/22 13:04:33;;;;;;;0.27;0.27;;;;;;;13.63;95.90;96678.94;5075161;28;40787;-85
2024/02/22 13:07:01;;;;;;;0.67;0.43;;;;;;;13.83;96.30;96701.53;5092190;28;41719;-85
2024/02/22 13:09:28;;;;;;;0.80;0.60;;;;;;;13.72;96.52;96672.63;5108983;28;44322;-85
2024/02/22 13:11:56;;;;;;;0.30;0.30;;;;;;;13.77;95.84;96680.09;5075382;28;39728;-84
2024/02/22 13:14:24;;;;;;;0.30;0.30;;;;;;;13.78;95.27;96681.75;5074004;28;41235;-81
2024/02/22 13:16:53;;;;;;;0.27;0.27;;;;;;;13.86;94.73;96679.91;5073203;28;41742;-84
2024/02/22 13:19:21;;;;;;;0.40;0.40;;;;;;;13.83;94.40;96674.94;5091036;28;42528;-82
2024/02/22 13:21:48;;;;;;;0.37;0.37;;;;;;;13.92;93.48;96683.72;5090993;28;38912;-84
2024/02/22 13:24:16;;;;;;;0.37;0.30;;;;;;;13.94;92.75;96677.25;5074959;28;42496;-84
2024/02/22 13:26:43;;;;;;;0.20;0.20;;;;;;;13.85;92.37;96672.91;5075724;28;44551;-84
2024/02/22 13:29:10;;;;;;;0.40;0.30;;;;;;;13.94;92.54;96677.25;5089997;28;43274;-85
2024/02/22 13:31:38;;;;;;;0.50;0.50;;;;;;;13.91;92.33;96664.28;5075985;28;42247;-84
2024/02/22 13:34:07;;;;;;;0.97;0.40;;;;;;;13.82;92.11;96628.06;5089823;28;40687;-83
2024/02/22 13:36:35;;;;;;;0.50;0.50;;;;;;;13.97;91.71;96649.47;5079524;28;42206;-82
2024/02/22 13:39:03;;;;;;;1.33;0.40;;;;;;;13.91;91.83;96658.13;5090879;28;43132;-84
2024/02/22 13:41:31;;;;;;;0.30;0.30;;;;;;;13.82;91.95;96641.34;5090435;28;40240;-86
2024/02/22 13:43:58;;;;;;;0.30;0.30;;;;;;;13.81;92.38;96631.72;5073748;28;41059;-85
2024/02/22 13:46:25;;;;;;;0.53;0.53;;;;;;;13.82;92.64;96641.34;5091897;28;42719;-84
2024/02/22 13:48:53;;;;;;;0.70;0.70;;;;;;;13.71;93.84;96617.78;5073807;28;41258;-84
2024/02/22 13:51:22;;;;;;;0.53;0.53;;;;;;;13.67;95.10;96613.78;5090051;28;39658;-82
2024/02/22 13:53:50;;;;;;;0.50;0.50;;;;;;;13.62;95.95;96618.78;5073293;28;41949;-83
2024/02/22 13:56:18;;;;;;;0.40;0.40;;;;;;;13.39;97.41;96594.72;5073272;28;41795;-88
2024/02/22 13:58:45;;;;;;;0.93;0.47;;;;;;;13.41;97.98;96600.72;5073404;28;42717;-84
2024/02/22 14:01:13;;;;;;;0.63;0.50;;;;;;;13.43;98.52;96608.53;5091438;28;40703;-84
2024/02/22 14:03:41;;;;;;;0.30;0.30;;;;;;;13.36;99.01;96586.25;5091135;28;40590;-84
2024/02/22 14:06:08;;;;;;;0.63;0.50;;;;;;;13.29;99.65;96584.28;5090809;28;42722;-85
2024/02/22 14:08:38;;;;;;;1.13;0.43;;;;;;;13.17;100.00;96575.00;5074271;28;42867;-83
2024/02/22 14:11:06;;;;;;;0.57;0.57;;;;;;;13.17;100.00;96579.47;5074112;28;40138;-87
2024/02/22 14:13:35;;;;;;;0.37;0.37;;;;;;;13.05;100.00;96568.31;5091387;28;42580;-89
2024/02/22 14:16:03;;;;;;;0.87;0.53;;;;;;;12.90;100.00;96552.22;5074527;28;41783;-86
2024/02/22 14:18:31;;;;;;;0.57;0.57;;;;;;;12.91;100.00;96550.41;5073767;28;41178;-84
2024/02/22 14:20:58;;;;;;;1.37;0.60;;;;;;;12.83;100.00;96547.75;5091404;28;39687;-84
2024/02/22 14:23:26;;;;;;;0.73;0.63;;;;;;;12.76;100.00;96526.31;5072437;28;42326;-82
2024/02/22 14:25:56;;;;;;;0.60;0.60;;;;;;;12.78;100.00;96531.47;5072281;28;42362;-86
2024/02/22 14:28:24;;;;;;;0.80;0.60;;;;;;;12.68;100.00;96520.19;5072244;28;41284;-84
2024/02/22 14:30:51;;;;;;;0.50;0.50;;;;;;;12.80;100.00;96540.09;5073045;28;38868;-85
2024/02/22 14:33:19;;;;;;;0.50;0.50;;;;;;;12.71;100.00;96520.69;5089825;28;41709;-87
2024/02/22 14:35:47;;;;;;;0.43;0.43;;;;;;;12.78;100.00;96528.81;5089575;28;42905;-88
2024/02/22 14:38:16;;;;;;;0.80;0.50;;;;;;;12.71;100.00;96514.56;5089964;28;42241;-85
2024/02/22 16:47:55;;;;;;;1.73;0.80;;;;;;;9.57;100.00;96366.97;5171066;27;20523;-83
2024/02/22 16:50:23;;;;;;;1.23;0.90;;;;;;;9.91;100.00;96337.19;5152997;27;40270;-87
2024/02/22 16:52:50;;;;;;;2.03;1.00;;;;;;;10.29;100.00;96328.91;5135895;27;40424;-84
2024/02/22 16:55:19;;;;;;;1.63;1.13;;;;;;;10.69;100.00;96324.84;5135691;27;41712;-84
